Ana Sayfa
METAR-TAF:

METAR-TAF

Havaalanları :

Larnaka, Kıbrıs

Larnaka Uluslararası Havalimanı

Enlem: 34-53N, Boylam: 033-38E, yükseklik: 2 m

Güncel hava durumu gözlemi

Rapor saat 02:00 UTC de 13 dakika önce yapıldı.
Rüzgar kuzeydan 9 kt
Sıcaklık 24°C
Nem 22%
Basınç 1008 hPa
Görüş mesafesi 10 km veya daha fazla
1500 m altında bulut yok ve kümülonimbus yok

METAR: LCLK 260200Z 35009KT CAVOK 24/01 Q1008 NOSIG

Saat: 05:13 (02:13 UTC)

Tahmin

Rapor saat 23:30 UTC de 2 saat ve 43 dakika önce yapıldı.
Ayın 26'si saat 00 UTC'den ayın 26'si saat 24 UTC'ye kadar geçerli Tahmin
Rüzgar kuzey/kuzeydoğudan 8 kt
Görüş mesafesi 10 km veya daha fazla
4000 ft yükseklikte az bulutlu
Dönüşüyor
ayın 26'si saat 06 UTC'den ayın 26'si saat 10 UTC'ye kadar
Rüzgar doğudan 11 kt
Dönüşüyor
ayın 26'si saat 14 UTC'den ayın 26'si saat 18 UTC'ye kadar
Rüzgar kuzeydan 7 kt

TAF: LCLK 252330Z 2600/2624 02008KT 9999 FEW040 BECMG 2606/2610 09011KT BECMG 2614/2618 35007KT

4.000'den fazla havaalanı için hava durumu gözlemleri ve tahminleri (METAR ve TAF raporları).

Kullanılabilir istasyonlar harita üzerinde sarı ve kırmızı noktalarla gösterilir.

İstasyonun adını görmek için fareyi noktanın üzerinde gezdirin.

Sonrasında hava gözlem ve tahminlerini görmek için tıklayın.

Haritayı değiştirmek için: yaklaştırmak için siyah artı işaretli yeşil düğmeye ve uzaklaştırmak için de eksi işaretli düğmeye hızla tıklayın; bitişik haritalar için yeşil okları kullanın.


METAR-TAF: